Arcadia, Indiana
Current Conditions -  °F | °C
As of 1:55 PM on Friday 24 Oct 2014 (Local Time) from KTYQ Reporting Station
Broken Clouds Broken Clouds  
Wind Chill: 16°   Ceiling: 2100
Heat Index: 16°   Visibility: 10mi
Dew Point: 10°   Wind: 7mph
Humidity: 65%   Direction: 190°S
Pressure: 30.07"   Gusts: NA
Location:  40.18°N, 86.02°W
Report Text: KTYQ 241755Z AUTO 19006KT 160V220 10SM BKN021 16/10 A3007 RMK AO2 T01640097 10164 20034
Loading
Personal Weather Stations






























Interactive Weather Map
Tropical Storm Tracking
New forecast layout! Learn more

10-Day Weather Forecast

Advertisements
Track Severe Weather on mobile